createdAt,value
2022-10-01T00:00:29.880Z,89.50
2022-10-01T00:03:05.273Z,100.43
2022-10-01T00:05:45.765Z,96.20
2022-10-01T00:08:28.628Z,84.47
2022-10-01T00:11:05.999Z,99.03
2022-10-01T00:13:41.355Z,91.90
2022-10-01T00:16:20.965Z,92.83
2022-10-01T00:19:01.958Z,84.03
2022-10-01T00:21:42.448Z,83.83
2022-10-01T00:24:19.943Z,87.43
2022-10-01T00:26:56.810Z,84.07
2022-10-01T00:29:37.365Z,87.60
2022-10-01T00:32:14.953Z,82.53
2022-10-01T00:34:55.451Z,81.43
2022-10-01T00:37:40.669Z,91.90
2022-10-01T00:40:17.889Z,103.53
2022-10-01T00:42:54.324Z,113.87
2022-10-01T00:45:33.452Z,108.63
2022-10-01T00:48:16.587Z,116.87
2022-10-01T00:50:53.703Z,115.93
2022-10-01T00:53:36.190Z,103.93
2022-10-01T00:56:17.372Z,124.00
2022-10-01T00:59:02.297Z,118.17
2022-10-01T01:01:43.949Z,117.60
2022-10-01T01:04:29.752Z,114.63
2022-10-01T01:07:14.874Z,109.37
2022-10-01T01:09:57.876Z,104.03
2022-10-01T01:12:47.091Z,106.23
2022-10-01T01:15:29.319Z,108.17
2022-10-01T01:18:14.507Z,107.23
2022-10-01T01:21:21.249Z,107.20
2022-10-01T01:24:35.340Z,101.53
2022-10-01T01:27:29.969Z,96.93
2022-10-01T01:30:12.645Z,103.23
2022-10-01T01:32:58.916Z,107.13
2022-10-01T01:35:38.404Z,120.83
2022-10-01T01:38:18.328Z,112.57
2022-10-01T01:40:58.086Z,112.77
2022-10-01T01:43:37.628Z,110.23
2022-10-01T01:46:21.485Z,115.13
2022-10-01T01:49:00.179Z,117.30
2022-10-01T01:51:43.841Z,122.47
2022-10-01T01:54:20.111Z,121.07
2022-10-01T01:56:57.765Z,124.90
2022-10-01T01:59:45.215Z,116.43
2022-10-01T02:02:29.301Z,121.73
2022-10-01T02:05:13.612Z,128.10
2022-10-01T02:08:36.524Z,122.57
2022-10-01T02:11:30.254Z,123.10
2022-10-01T02:14:19.563Z,130.90
2022-10-01T02:17:03.761Z,121.80
2022-10-01T02:19:55.448Z,120.77
2022-10-01T02:22:48.953Z,118.40
2022-10-01T02:25:34.809Z,114.87
2022-10-01T02:28:19.939Z,116.13
2022-10-01T02:31:00.602Z,117.80
2022-10-01T02:33:39.708Z,111.37
2022-10-01T02:36:28.209Z,118.30
2022-10-01T02:39:07.934Z,105.17
2022-10-01T02:41:48.282Z,108.70
2022-10-01T02:44:39.277Z,114.87
2022-10-01T02:47:26.254Z,115.17
2022-10-01T02:50:06.425Z,106.23
2022-10-01T02:52:53.292Z,114.00
2022-10-01T02:55:36.026Z,111.63
2022-10-01T02:58:35.400Z,106.90
2022-10-01T03:01:15.030Z,109.00
2022-10-01T03:03:52.393Z,106.97
2022-10-01T03:06:29.591Z,105.13
2022-10-01T03:09:13.247Z,111.60
2022-10-01T03:11:51.447Z,103.77
2022-10-01T03:14:27.799Z,97.03
2022-10-01T03:17:12.945Z,103.13
2022-10-01T03:19:50.956Z,105.67
2022-10-01T03:22:33.225Z,89.50
2022-10-01T03:25:14.752Z,92.50
2022-10-01T03:28:04.951Z,95.70
2022-10-01T03:30:44.778Z,103.10
2022-10-01T03:33:24.214Z,94.93
2022-10-01T03:36:02.214Z,90.37
2022-10-01T03:38:52.179Z,86.27
2022-10-01T03:41:33.912Z,83.57
2022-10-01T03:44:15.847Z,96.47
2022-10-01T03:47:01.550Z,98.50
2022-10-01T03:49:44.608Z,95.10
2022-10-01T03:52:21.900Z,89.60
2022-10-01T03:55:03.974Z,90.73
2022-10-01T03:57:57.698Z,92.47
2022-10-01T04:00:38.434Z,82.65
2022-10-01T04:03:16.944Z,81.95
2022-10-01T04:05:59.277Z,84.03
2022-10-01T04:08:40.620Z,87.32
2022-10-01T04:11:30.904Z,85.50
2022-10-01T04:14:15.803Z,88.13
2022-10-01T04:16:54.292Z,86.90
2022-10-01T04:19:40.598Z,81.18
2022-10-01T04:22:28.666Z,91.00
2022-10-01T04:25:10.054Z,92.53
2022-10-01T04:27:48.541Z,85.23
2022-10-01T04:30:44.572Z,92.17
2022-10-01T04:33:53.746Z,89.30
2022-10-01T04:36:35.478Z,82.60
2022-10-01T04:39:25.216Z,92.78
2022-10-01T04:42:05.230Z,92.07
2022-10-01T04:44:49.440Z,84.85
2022-10-01T04:47:44.734Z,83.60
2022-10-01T04:50:34.330Z,90.57
2022-10-01T04:53:16.387Z,86.30
2022-10-01T04:56:03.120Z,84.18
2022-10-01T04:59:02.189Z,81.60
2022-10-01T05:01:39.623Z,86.75
2022-10-01T05:04:28.809Z,80.97
2022-10-01T05:07:08.900Z,84.15
2022-10-01T05:09:52.882Z,81.90
2022-10-01T05:12:36.661Z,85.57
2022-10-01T05:15:16.844Z,82.90
2022-10-01T05:17:56.303Z,75.28
2022-10-01T05:20:40.823Z,81.68
2022-10-01T05:23:34.264Z,75.60
2022-10-01T05:26:28.283Z,75.93
2022-10-01T05:29:12.468Z,79.22
2022-10-01T05:31:56.503Z,67.68
2022-10-01T05:34:34.136Z,72.70
2022-10-01T05:37:21.923Z,74.80
2022-10-01T05:40:01.579Z,80.38
2022-10-01T05:42:42.578Z,77.20
2022-10-01T05:45:29.077Z,72.10
2022-10-01T05:48:17.769Z,74.93
2022-10-01T05:50:57.535Z,72.10
2022-10-01T05:53:41.268Z,67.43
2022-10-01T05:56:21.741Z,66.63
2022-10-01T05:58:59.439Z,76.45
2022-10-01T06:01:46.439Z,69.45
2022-10-01T06:04:28.281Z,75.57
2022-10-01T06:07:05.455Z,71.10
2022-10-01T06:09:47.228Z,66.75
2022-10-01T06:12:28.843Z,61.40
2022-10-01T06:15:05.075Z,62.22
2022-10-01T06:17:46.447Z,63.40
2022-10-01T06:20:28.485Z,70.40
2022-10-01T06:23:13.761Z,69.72
2022-10-01T06:26:08.953Z,81.18
2022-10-01T06:28:50.748Z,82.45
2022-10-01T06:31:32.199Z,70.95
2022-10-01T06:34:14.498Z,69.97
2022-10-01T06:37:13.761Z,66.88
2022-10-01T06:39:51.127Z,80.70
2022-10-01T06:42:35.240Z,74.70
2022-10-01T06:45:11.855Z,67.03
2022-10-01T06:47:48.266Z,73.97
2022-10-01T06:50:27.545Z,79.75
2022-10-01T06:53:12.039Z,75.43
2022-10-01T06:56:01.388Z,78.22
2022-10-01T06:58:51.208Z,85.93
2022-10-01T07:01:29.223Z,80.10
2022-10-01T07:04:11.638Z,77.78
2022-10-01T07:07:01.149Z,73.25
2022-10-01T07:09:41.823Z,79.30
2022-10-01T07:12:21.169Z,64.80
2022-10-01T07:15:05.167Z,82.88
2022-10-01T07:17:52.403Z,77.05
2022-10-01T07:20:40.260Z,74.15
2022-10-01T07:23:23.762Z,81.70
2022-10-01T07:26:01.000Z,78.07
2022-10-01T07:28:46.864Z,77.05
2022-10-01T07:31:28.840Z,74.43
2022-10-01T07:34:09.045Z,68.63
2022-10-01T07:36:53.523Z,69.45
2022-10-01T07:39:31.051Z,69.03
2022-10-01T07:42:09.760Z,66.32
2022-10-01T07:44:49.333Z,73.18
2022-10-01T07:47:29.736Z,70.95
2022-10-01T07:50:21.178Z,71.75
2022-10-01T07:53:04.395Z,64.63
2022-10-01T07:55:42.658Z,71.80
2022-10-01T07:58:25.193Z,69.15
2022-10-01T08:01:09.366Z,65.50
2022-10-01T08:03:57.410Z,71.03
2022-10-01T08:06:40.355Z,71.38
2022-10-01T08:09:28.703Z,65.32
2022-10-01T08:12:18.364Z,75.43
2022-10-01T08:14:58.900Z,64.72
2022-10-01T08:17:39.236Z,65.18
2022-10-01T08:20:25.871Z,61.35
2022-10-01T08:23:09.727Z,63.95
2022-10-01T08:25:49.426Z,62.27
2022-10-01T08:28:29.811Z,61.67
2022-10-01T08:31:11.640Z,62.85
2022-10-01T08:33:54.639Z,59.90
2022-10-01T08:36:37.172Z,64.20
2022-10-01T08:39:18.802Z,60.27
2022-10-01T08:42:05.363Z,59.10
2022-10-01T08:44:51.211Z,61.03
2022-10-01T08:47:36.851Z,61.20
2022-10-01T08:50:31.159Z,59.87
2022-10-01T08:53:27.040Z,57.50
2022-10-01T08:56:04.829Z,62.43
2022-10-01T08:58:55.501Z,60.93
2022-10-01T09:01:36.914Z,62.57
2022-10-01T09:04:19.120Z,63.30
2022-10-01T09:07:06.462Z,68.20
2022-10-01T09:10:15.486Z,70.97
2022-10-01T09:13:05.854Z,64.53
2022-10-01T09:15:47.180Z,61.30
2022-10-01T09:18:29.348Z,66.67
2022-10-01T09:21:22.392Z,72.30
2022-10-01T09:24:14.174Z,72.37
2022-10-01T09:26:55.253Z,66.87
2022-10-01T09:30:00.505Z,73.63
2022-10-01T09:32:45.361Z,72.53
2022-10-01T09:35:36.691Z,68.47
2022-10-01T09:38:27.157Z,75.90
2022-10-01T09:41:09.473Z,77.87
2022-10-01T09:43:53.470Z,72.13
2022-10-01T09:46:31.771Z,81.23
2022-10-01T09:49:14.818Z,79.73
2022-10-01T09:52:02.822Z,76.07
2022-10-01T09:54:47.022Z,78.13
2022-10-01T09:57:27.967Z,87.53
2022-10-01T10:00:20.569Z,71.30
2022-10-01T10:02:58.591Z,77.10
2022-10-01T10:05:51.098Z,84.27
2022-10-01T10:08:39.121Z,79.67
2022-10-01T10:11:25.127Z,73.63
2022-10-01T10:14:06.051Z,75.90
2022-10-01T10:16:54.771Z,73.80
2022-10-01T10:19:42.617Z,79.90
2022-10-01T10:22:35.076Z,76.30
2022-10-01T10:25:24.846Z,68.77
2022-10-01T10:28:04.162Z,66.77
2022-10-01T10:30:42.252Z,75.27
2022-10-01T10:33:24.933Z,75.00
2022-10-01T10:36:15.500Z,71.40
2022-10-01T10:39:00.275Z,71.13
2022-10-01T10:41:44.631Z,78.03
2022-10-01T10:44:27.227Z,73.47
2022-10-01T10:47:13.049Z,74.57
2022-10-01T10:49:57.478Z,71.63
2022-10-01T10:52:36.889Z,74.00
2022-10-01T10:55:30.359Z,76.23
2022-10-01T10:58:20.617Z,75.80
2022-10-01T11:01:05.934Z,74.13
2022-10-01T11:03:48.638Z,73.40
2022-10-01T11:06:32.319Z,72.57
2022-10-01T11:09:17.599Z,75.93
2022-10-01T11:12:01.484Z,74.40
2022-10-01T11:15:02.968Z,76.37
2022-10-01T11:18:10.792Z,70.67
2022-10-01T11:21:04.817Z,70.80
2022-10-01T11:24:16.085Z,78.80
2022-10-01T11:27:14.293Z,78.80
2022-10-01T11:30:03.704Z,73.13
2022-10-01T11:32:47.287Z,71.03
2022-10-01T11:35:51.007Z,65.87
2022-10-01T11:38:54.293Z,59.47
2022-10-01T11:41:39.644Z,59.47
2022-10-01T11:44:29.341Z,60.40
2022-10-01T11:47:15.017Z,57.63
2022-10-01T11:50:05.630Z,61.37
2022-10-01T11:52:51.045Z,61.57
2022-10-01T11:55:47.939Z,60.37
2022-10-01T11:58:49.756Z,61.93
2022-10-01T12:01:41.781Z,58.77
2022-10-01T12:04:40.377Z,61.93
2022-10-01T12:07:22.037Z,64.73
2022-10-01T12:10:14.420Z,68.53
2022-10-01T12:13:04.570Z,65.77
2022-10-01T12:15:49.890Z,76.53
2022-10-01T12:18:37.629Z,74.70
2022-10-01T12:21:20.919Z,72.07
2022-10-01T12:24:08.116Z,68.50
2022-10-01T12:26:52.866Z,70.93
2022-10-01T12:29:40.719Z,70.33
2022-10-01T12:32:29.058Z,67.07
2022-10-01T12:35:30.762Z,74.30
2022-10-01T12:38:32.928Z,80.00
2022-10-01T12:41:17.601Z,67.30
2022-10-01T12:44:13.814Z,68.93
2022-10-01T12:47:04.312Z,74.53
2022-10-01T12:49:52.017Z,70.13
2022-10-01T12:52:42.732Z,68.57
2022-10-01T12:56:02.165Z,69.17
2022-10-01T12:59:09.912Z,73.40
2022-10-01T13:02:11.319Z,71.37
2022-10-01T13:05:38.213Z,71.23
2022-10-01T13:08:45.289Z,72.27
2022-10-01T13:11:51.616Z,75.87
2022-10-01T13:14:59.301Z,77.87
2022-10-01T13:17:47.587Z,80.03
2022-10-01T13:20:34.108Z,77.30
2022-10-01T13:23:31.822Z,82.47
2022-10-01T13:26:18.798Z,72.43
2022-10-01T13:29:31.548Z,71.03
2022-10-01T13:32:51.500Z,68.53
2022-10-01T13:35:41.664Z,74.37
2022-10-01T13:38:37.845Z,72.87
2022-10-01T13:41:28.624Z,79.60
2022-10-01T13:44:15.460Z,72.80
2022-10-01T13:47:00.272Z,76.10
2022-10-01T13:49:45.832Z,79.67
2022-10-01T13:52:33.427Z,75.27
2022-10-01T13:55:45.186Z,76.67
2022-10-01T13:58:50.648Z,79.83
2022-10-01T14:01:55.329Z,80.73
2022-10-01T14:04:49.555Z,76.80
2022-10-01T14:07:32.158Z,81.20
2022-10-01T14:10:14.946Z,77.63
2022-10-01T14:13:10.149Z,78.33
2022-10-01T14:16:08.792Z,77.73
2022-10-01T14:18:50.032Z,77.67
2022-10-01T14:21:45.687Z,74.73
2022-10-01T14:24:48.631Z,80.73
2022-10-01T14:27:43.411Z,83.03
2022-10-01T14:30:25.593Z,79.60
2022-10-01T14:33:36.931Z,76.60
2022-10-01T14:36:37.387Z,85.30
2022-10-01T14:39:28.311Z,75.00
2022-10-01T14:42:20.460Z,82.80
2022-10-01T14:45:03.258Z,81.23
2022-10-01T14:47:50.284Z,82.97
2022-10-01T14:50:34.657Z,79.77
2022-10-01T14:53:18.267Z,77.87
2022-10-01T14:56:05.539Z,84.50
2022-10-01T14:59:01.272Z,81.93
2022-10-01T15:01:41.181Z,83.40
2022-10-01T15:04:41.542Z,86.10
2022-10-01T15:07:37.801Z,83.63
2022-10-01T15:10:33.821Z,89.03
2022-10-01T15:13:15.493Z,83.30
2022-10-01T15:16:00.988Z,86.47
2022-10-01T15:18:44.153Z,92.40
2022-10-01T15:21:55.507Z,89.40
2022-10-01T15:24:46.133Z,91.13
2022-10-01T15:27:30.716Z,108.07
2022-10-01T15:30:15.577Z,93.70
2022-10-01T15:33:03.036Z,93.87
2022-10-01T15:35:47.749Z,97.53
2022-10-01T15:38:34.951Z,95.00
2022-10-01T15:41:31.462Z,85.70
2022-10-01T15:44:13.634Z,88.50
2022-10-01T15:46:50.836Z,92.60
2022-10-01T15:49:33.339Z,92.67
2022-10-01T15:52:35.689Z,89.63
2022-10-01T15:55:47.833Z,95.47
2022-10-01T15:58:42.265Z,99.47
2022-10-01T16:01:22.308Z,92.80
2022-10-01T16:04:22.105Z,95.43
2022-10-01T16:07:41.946Z,95.23
2022-10-01T16:10:42.186Z,92.87
2022-10-01T16:13:59.839Z,87.33
2022-10-01T16:16:39.451Z,98.03
2022-10-01T16:19:42.311Z,93.67
2022-10-01T16:22:26.801Z,99.80
2022-10-01T16:25:04.663Z,89.50
2022-10-01T16:27:59.616Z,86.93
2022-10-01T16:30:42.547Z,90.47
2022-10-01T16:33:23.919Z,95.03
2022-10-01T16:36:22.565Z,93.60
2022-10-01T16:39:00.672Z,87.77
2022-10-01T16:41:38.868Z,90.63
2022-10-01T16:44:25.877Z,88.03
2022-10-01T16:47:08.626Z,88.53
2022-10-01T16:49:48.563Z,104.23
2022-10-01T16:52:33.228Z,89.50
2022-10-01T16:55:18.239Z,88.27
2022-10-01T16:57:59.778Z,85.60
2022-10-01T17:00:38.529Z,89.20
2022-10-01T17:03:28.655Z,89.57
2022-10-01T17:06:07.956Z,86.63
2022-10-01T17:08:48.491Z,83.97
2022-10-01T17:11:28.235Z,81.27
2022-10-01T17:14:04.501Z,86.97
2022-10-01T17:16:44.878Z,84.27
2022-10-01T17:19:24.676Z,89.70
2022-10-01T17:22:07.006Z,88.03
2022-10-01T17:24:48.755Z,84.90
2022-10-01T17:27:29.328Z,85.07
2022-10-01T17:30:07.411Z,73.97
2022-10-01T17:32:49.757Z,85.40
2022-10-01T17:35:31.241Z,77.90
2022-10-01T17:38:12.416Z,80.70
2022-10-01T17:40:56.638Z,83.47
2022-10-01T17:43:36.363Z,80.73
2022-10-01T17:46:17.536Z,82.57
2022-10-01T17:49:02.557Z,79.13
2022-10-01T17:51:43.970Z,81.07
2022-10-01T17:54:24.038Z,85.03
2022-10-01T17:57:00.343Z,79.50
2022-10-01T17:59:39.049Z,85.23
2022-10-01T18:02:40.969Z,75.10
2022-10-01T18:05:24.264Z,77.27
2022-10-01T18:08:00.974Z,74.97
2022-10-01T18:10:36.210Z,80.57
2022-10-01T18:13:25.448Z,80.83
2022-10-01T18:16:09.995Z,83.93
2022-10-01T18:19:51.948Z,83.47
2022-10-01T18:21:46.692Z,89.90
2022-10-01T18:24:26.246Z,90.77
2022-10-01T18:27:02.179Z,93.77
2022-10-01T18:29:37.884Z,99.03
2022-10-01T18:32:21.148Z,100.53
2022-10-01T18:35:00.315Z,109.57
2022-10-01T18:37:45.180Z,104.97
2022-10-01T18:40:25.017Z,104.87
2022-10-01T18:43:05.280Z,113.17
2022-10-01T18:46:01.709Z,118.27
2022-10-01T18:49:00.757Z,116.70
2022-10-01T18:51:53.314Z,127.13
2022-10-01T18:54:44.713Z,130.53
2022-10-01T18:57:35.106Z,128.93
2022-10-01T19:00:16.852Z,127.60
2022-10-01T19:03:23.944Z,130.97
2022-10-01T19:06:18.050Z,133.37
2022-10-01T19:09:06.681Z,131.77
2022-10-01T19:11:52.877Z,130.33
2022-10-01T19:15:02.306Z,130.57
2022-10-01T19:17:51.493Z,130.23
2022-10-01T19:20:46.052Z,132.67
2022-10-01T19:23:50.211Z,136.40
2022-10-01T19:26:32.311Z,134.77
2022-10-01T19:29:22.422Z,135.27
2022-10-01T19:31:59.712Z,135.53
2022-10-01T19:34:40.546Z,146.87
2022-10-01T19:37:20.894Z,140.47
2022-10-01T19:40:01.213Z,137.90
2022-10-01T19:42:41.025Z,138.00
2022-10-01T19:45:26.014Z,150.20
2022-10-01T19:48:11.248Z,152.43
2022-10-01T19:50:49.710Z,149.30
2022-10-01T19:53:29.668Z,150.53
2022-10-01T19:56:06.652Z,143.77
2022-10-01T19:58:40.702Z,150.50
2022-10-01T20:01:22.876Z,145.27
2022-10-01T20:04:04.979Z,147.67
2022-10-01T20:06:46.511Z,147.83
2022-10-01T20:09:29.212Z,147.03
2022-10-01T20:12:12.236Z,147.97
2022-10-01T20:15:15.965Z,147.53
2022-10-01T20:18:05.018Z,150.30
2022-10-01T20:20:44.839Z,156.23
2022-10-01T20:23:41.811Z,142.53
2022-10-01T20:26:26.398Z,148.13
2022-10-01T20:29:19.762Z,147.70
2022-10-01T20:32:04.402Z,153.87
2022-10-01T20:34:52.061Z,152.60
2022-10-01T20:37:40.860Z,148.97
2022-10-01T20:40:26.520Z,149.93
2022-10-01T20:43:07.247Z,153.93
2022-10-01T20:45:43.382Z,154.60
2022-10-01T20:48:22.559Z,157.93
2022-10-01T20:51:04.586Z,149.73
2022-10-01T20:53:43.217Z,155.70
2022-10-01T20:56:20.956Z,152.77
2022-10-01T20:59:00.378Z,152.20
2022-10-01T21:01:38.037Z,158.07
2022-10-01T21:04:19.534Z,163.87
2022-10-01T21:06:59.030Z,161.53
2022-10-01T21:09:39.008Z,162.60
2022-10-01T21:12:19.294Z,161.83
2022-10-01T21:14:58.380Z,159.40
2022-10-01T21:17:44.388Z,159.50
2022-10-01T21:20:34.918Z,156.90
2022-10-01T21:23:27.599Z,162.00
2022-10-01T21:26:16.427Z,154.53
2022-10-01T21:29:06.283Z,160.33
2022-10-01T21:31:49.791Z,160.50
2022-10-01T21:34:33.934Z,158.80
2022-10-01T21:37:14.321Z,154.20
2022-10-01T21:40:07.495Z,155.90
2022-10-01T21:42:52.591Z,161.43
2022-10-01T21:45:34.631Z,147.67
2022-10-01T21:48:28.815Z,156.43
2022-10-01T21:51:11.492Z,160.43
2022-10-01T21:54:06.501Z,154.33
2022-10-01T21:57:06.416Z,159.37
2022-10-01T22:00:04.736Z,162.33
2022-10-01T22:02:47.518Z,160.23
2022-10-01T22:05:30.520Z,167.03
2022-10-01T22:08:17.747Z,159.77
2022-10-01T22:10:54.853Z,159.47
2022-10-01T22:13:34.507Z,161.33
2022-10-01T22:16:12.527Z,164.97
2022-10-01T22:18:50.713Z,165.40
2022-10-01T22:21:29.244Z,162.00
2022-10-01T22:24:08.630Z,161.33
2022-10-01T22:26:47.256Z,165.17
2022-10-01T22:29:28.971Z,162.10
2022-10-01T22:32:06.505Z,167.33
2022-10-01T22:34:44.833Z,169.40
2022-10-01T22:37:24.826Z,156.67
2022-10-01T22:40:03.319Z,174.77
2022-10-01T22:42:41.579Z,175.93
2022-10-01T22:45:20.583Z,175.77
2022-10-01T22:48:13.855Z,176.50
2022-10-01T22:50:58.272Z,165.83
2022-10-01T22:53:46.178Z,167.13
2022-10-01T22:56:28.279Z,166.00
2022-10-01T22:59:11.978Z,172.83
2022-10-01T23:01:56.926Z,160.73
2022-10-01T23:04:51.614Z,168.23
2022-10-01T23:07:34.852Z,160.83
2022-10-01T23:10:14.545Z,168.23
2022-10-01T23:12:59.805Z,166.73
2022-10-01T23:15:42.857Z,156.33
2022-10-01T23:18:33.422Z,151.87
2022-10-01T23:21:21.200Z,159.27
2022-10-01T23:24:06.653Z,157.53
2022-10-01T23:26:50.722Z,158.50
2022-10-01T23:29:48.119Z,165.37
2022-10-01T23:32:39.609Z,164.93
2022-10-01T23:35:23.001Z,160.53
2022-10-01T23:38:13.492Z,152.60
2022-10-01T23:40:53.501Z,152.03
2022-10-01T23:43:34.052Z,145.20
2022-10-01T23:46:13.848Z,149.43
2022-10-01T23:48:53.095Z,155.97
2022-10-01T23:51:33.536Z,143.17
2022-10-01T23:54:16.824Z,144.23
2022-10-01T23:56:55.891Z,137.33
2022-10-01T23:59:36.825Z,139.43
